This is the latest recevied weather packets stored in our database for station/object SQ8AQL-16. If no packets are shown the sender has not sent any weather packets the latest 10 day(s).
| Time | Temp. | Humidity | Pressure | Rain* | Wind** | Luminosity | Snow |
|---|---|---|---|---|---|---|---|
| 1777120799 | 24.44° C | 30% | 1011.8 hPa | - | - | 632 W/m² | - |
| 1777119898 | 22.78° C | 33% | 1011.9 hPa | - | - | 663 W/m² | - |
| 1777118997 | 22.78° C | 31% | 1012.3 hPa | - | - | 696 W/m² | - |
| 1777118096 | 21.11° C | 36% | 1012.4 hPa | - | - | 137 W/m² | - |
| 1777117195 | 21.11° C | 36% | 1012.5 hPa | - | - | 137 W/m² | - |
| 1777116294 | 18.33° C | 42% | 1012.5 hPa | - | - | 778 W/m² | - |
| 1777115392 | 18.33° C | 42% | 1012.8 hPa | - | - | 778 W/m² | - |
| 1777114491 | 18.33° C | 42% | 1013.2 hPa | - | - | 778 W/m² | - |
| 1777113590 | 18.33° C | 42% | 1013.4 hPa | - | - | 476 W/m² | - |
| 1777112689 | 16.11° C | 50% | 1013.5 hPa | - | - | 678 W/m² | - |
| 1777111788 | 16.11° C | 50% | 1013.7 hPa | - | - | 678 W/m² | - |
| 1777110887 | 16.11° C | 50% | 1013.8 hPa | - | - | 678 W/m² | - |
| 1777109986 | 15.56° C | 51% | 1013.8 hPa | - | - | 503 W/m² | - |
| 1777109085 | 14.44° C | 56% | 1013.9 hPa | - | - | 79 W/m² | - |
| 1777108184 | 14.44° C | 56% | 1014 hPa | - | - | 79 W/m² | - |
| 1777107282 | 13.89° C | 57% | 1014.1 hPa | - | - | 60 W/m² | - |
| 1777106381 | 10° C | 71% | 1014.3 hPa | - | - | 30 W/m² | - |
| 1777105481 | 10° C | 71% | 1014.4 hPa | - | - | 30 W/m² | - |
| 1777104580 | 10° C | 71% | 1014.5 hPa | - | - | 30 W/m² | - |
| 1777103679 | 10° C | 71% | 1014.6 hPa | - | - | 30 W/m² | - |
| 1777102778 | 10° C | 71% | 1014.6 hPa | - | - | 30 W/m² | - |
| 1777101877 | 10° C | 71% | 1014.7 hPa | - | - | 30 W/m² | - |
| 1777100976 | 10° C | 71% | 1014.8 hPa | - | - | 30 W/m² | - |
| 1777100074 | 10° C | 71% | 1014.9 hPa | - | - | 30 W/m² | - |
| 1777099174 | 10° C | 73% | 1014.9 hPa | - | - | 29 W/m² | - |
* Rain since midnight (hover to see other rain measurements)
** Current wind speed in m/s (hover to see current wind gust speed)